sensor_id;sensor_type;location;lat;lon;timestamp;P1;durP1;ratioP1;P2;durP2;ratioP2
12124;SDS011;6126;57.908;16.490;2022-08-03T00:00:42;0.95;;;0.75;;
12124;SDS011;6126;57.908;16.490;2022-08-03T00:03:08;1.25;;;0.63;;
12124;SDS011;6126;57.908;16.490;2022-08-03T00:05:35;0.95;;;0.50;;
12124;SDS011;6126;57.908;16.490;2022-08-03T00:08:01;2.30;;;0.50;;
12124;SDS011;6126;57.908;16.490;2022-08-03T00:10:27;1.15;;;0.70;;
12124;SDS011;6126;57.908;16.490;2022-08-03T00:12:54;2.13;;;0.50;;
12124;SDS011;6126;57.908;16.490;2022-08-03T00:15:19;0.75;;;0.65;;
12124;SDS011;6126;57.908;16.490;2022-08-03T00:17:45;2.38;;;0.70;;
12124;SDS011;6126;57.908;16.490;2022-08-03T00:20:11;1.15;;;0.70;;
12124;SDS011;6126;57.908;16.490;2022-08-03T00:22:37;2.90;;;0.90;;
12124;SDS011;6126;57.908;16.490;2022-08-03T00:25:03;2.10;;;0.73;;
12124;SDS011;6126;57.908;16.490;2022-08-03T00:27:30;1.33;;;0.60;;
12124;SDS011;6126;57.908;16.490;2022-08-03T00:29:56;1.67;;;0.60;;
12124;SDS011;6126;57.908;16.490;2022-08-03T00:32:22;1.85;;;0.73;;
12124;SDS011;6126;57.908;16.490;2022-08-03T00:34:48;0.50;;;0.50;;
12124;SDS011;6126;57.908;16.490;2022-08-03T00:37:13;1.15;;;0.65;;
12124;SDS011;6126;57.908;16.490;2022-08-03T00:39:39;2.25;;;0.47;;
12124;SDS011;6126;57.908;16.490;2022-08-03T00:42:07;2.38;;;0.70;;
12124;SDS011;6126;57.908;16.490;2022-08-03T00:44:43;1.38;;;0.80;;
12124;SDS011;6126;57.908;16.490;2022-08-03T00:47:09;0.98;;;0.60;;
12124;SDS011;6126;57.908;16.490;2022-08-03T00:49:36;1.75;;;0.77;;
12124;SDS011;6126;57.908;16.490;2022-08-03T00:52:03;1.17;;;0.88;;
12124;SDS011;6126;57.908;16.490;2022-08-03T00:54:33;3.58;;;0.70;;
12124;SDS011;6126;57.908;16.490;2022-08-03T00:57:03;1.55;;;0.80;;
12124;SDS011;6126;57.908;16.490;2022-08-03T00:59:30;1.27;;;0.70;;
12124;SDS011;6126;57.908;16.490;2022-08-03T01:01:56;0.93;;;0.73;;
12124;SDS011;6126;57.908;16.490;2022-08-03T01:04:22;2.33;;;0.90;;
12124;SDS011;6126;57.908;16.490;2022-08-03T01:06:49;2.72;;;0.73;;
12124;SDS011;6126;57.908;16.490;2022-08-03T01:12:39;1.30;;;0.95;;
12124;SDS011;6126;57.908;16.490;2022-08-03T01:21:26;2.88;;;0.77;;
12124;SDS011;6126;57.908;16.490;2022-08-03T01:27:13;2.58;;;0.90;;
12124;SDS011;6126;57.908;16.490;2022-08-03T01:35:30;1.58;;;0.90;;
12124;SDS011;6126;57.908;16.490;2022-08-03T01:38:11;0.60;;;0.52;;
12124;SDS011;6126;57.908;16.490;2022-08-03T01:40:44;2.25;;;0.88;;
12124;SDS011;6126;57.908;16.490;2022-08-03T01:43:14;1.73;;;0.93;;
12124;SDS011;6126;57.908;16.490;2022-08-03T01:45:44;2.50;;;0.93;;
12124;SDS011;6126;57.908;16.490;2022-08-03T01:48:11;2.08;;;0.88;;
12124;SDS011;6126;57.908;16.490;2022-08-03T01:50:41;1.45;;;0.82;;
12124;SDS011;6126;57.908;16.490;2022-08-03T01:53:10;1.50;;;0.70;;
12124;SDS011;6126;57.908;16.490;2022-08-03T01:55:42;2.55;;;0.88;;
12124;SDS011;6126;57.908;16.490;2022-08-03T01:58:13;2.05;;;0.70;;
12124;SDS011;6126;57.908;16.490;2022-08-03T02:00:41;0.82;;;0.75;;
12124;SDS011;6126;57.908;16.490;2022-08-03T02:03:11;1.27;;;0.75;;
12124;SDS011;6126;57.908;16.490;2022-08-03T02:05:39;3.55;;;1.05;;
12124;SDS011;6126;57.908;16.490;2022-08-03T02:08:07;2.72;;;0.77;;
12124;SDS011;6126;57.908;16.490;2022-08-03T02:10:38;4.03;;;1.05;;
12124;SDS011;6126;57.908;16.490;2022-08-03T02:13:08;1.15;;;0.80;;
12124;SDS011;6126;57.908;16.490;2022-08-03T02:15:37;0.70;;;0.70;;
12124;SDS011;6126;57.908;16.490;2022-08-03T02:18:04;1.95;;;0.98;;
12124;SDS011;6126;57.908;16.490;2022-08-03T02:20:34;1.20;;;1.05;;
12124;SDS011;6126;57.908;16.490;2022-08-03T02:23:03;1.80;;;0.70;;
12124;SDS011;6126;57.908;16.490;2022-08-03T02:25:31;3.75;;;0.85;;
12124;SDS011;6126;57.908;16.490;2022-08-03T02:28:07;2.88;;;1.00;;
12124;SDS011;6126;57.908;16.490;2022-08-03T02:30:40;1.58;;;0.90;;
12124;SDS011;6126;57.908;16.490;2022-08-03T02:33:11;2.40;;;0.98;;
12124;SDS011;6126;57.908;16.490;2022-08-03T02:35:50;1.45;;;0.80;;
12124;SDS011;6126;57.908;16.490;2022-08-03T02:38:20;1.00;;;0.77;;
12124;SDS011;6126;57.908;16.490;2022-08-03T02:40:56;1.00;;;0.90;;
12124;SDS011;6126;57.908;16.490;2022-08-03T02:43:24;2.05;;;0.70;;
12124;SDS011;6126;57.908;16.490;2022-08-03T02:45:54;1.20;;;0.85;;
12124;SDS011;6126;57.908;16.490;2022-08-03T02:48:24;0.98;;;0.88;;
12124;SDS011;6126;57.908;16.490;2022-08-03T02:50:56;0.68;;;0.68;;
12124;SDS011;6126;57.908;16.490;2022-08-03T02:53:25;1.80;;;1.10;;
12124;SDS011;6126;57.908;16.490;2022-08-03T02:55:52;1.05;;;0.70;;
12124;SDS011;6126;57.908;16.490;2022-08-03T02:58:22;1.35;;;1.08;;
12124;SDS011;6126;57.908;16.490;2022-08-03T03:00:50;0.80;;;0.75;;
12124;SDS011;6126;57.908;16.490;2022-08-03T03:03:18;1.23;;;0.80;;
12124;SDS011;6126;57.908;16.490;2022-08-03T03:05:45;2.60;;;1.02;;
12124;SDS011;6126;57.908;16.490;2022-08-03T03:08:14;0.98;;;0.80;;
12124;SDS011;6126;57.908;16.490;2022-08-03T03:10:43;1.83;;;0.90;;
12124;SDS011;6126;57.908;16.490;2022-08-03T03:13:11;1.10;;;1.00;;
12124;SDS011;6126;57.908;16.490;2022-08-03T03:15:42;1.13;;;1.00;;
12124;SDS011;6126;57.908;16.490;2022-08-03T03:18:09;2.60;;;1.20;;
12124;SDS011;6126;57.908;16.490;2022-08-03T03:20:36;1.35;;;1.00;;
12124;SDS011;6126;57.908;16.490;2022-08-03T03:23:05;2.10;;;1.00;;
12124;SDS011;6126;57.908;16.490;2022-08-03T03:25:33;2.50;;;0.98;;
12124;SDS011;6126;57.908;16.490;2022-08-03T03:28:00;1.40;;;1.10;;
12124;SDS011;6126;57.908;16.490;2022-08-03T03:30:28;1.60;;;1.08;;
12124;SDS011;6126;57.908;16.490;2022-08-03T03:32:55;1.98;;;1.05;;
12124;SDS011;6126;57.908;16.490;2022-08-03T03:35:23;2.85;;;1.20;;
12124;SDS011;6126;57.908;16.490;2022-08-03T03:37:50;3.90;;;1.23;;
12124;SDS011;6126;57.908;16.490;2022-08-03T03:40:16;1.52;;;0.77;;
12124;SDS011;6126;57.908;16.490;2022-08-03T03:42:43;2.55;;;1.10;;
12124;SDS011;6126;57.908;16.490;2022-08-03T03:45:09;2.17;;;1.08;;
12124;SDS011;6126;57.908;16.490;2022-08-03T03:47:36;2.60;;;1.40;;
12124;SDS011;6126;57.908;16.490;2022-08-03T03:50:03;2.45;;;1.00;;
12124;SDS011;6126;57.908;16.490;2022-08-03T03:52:30;1.45;;;1.35;;
12124;SDS011;6126;57.908;16.490;2022-08-03T03:54:57;1.30;;;1.20;;
12124;SDS011;6126;57.908;16.490;2022-08-03T03:57:24;3.53;;;0.98;;
12124;SDS011;6126;57.908;16.490;2022-08-03T03:59:50;2.88;;;1.50;;
12124;SDS011;6126;57.908;16.490;2022-08-03T04:02:16;3.40;;;1.42;;
12124;SDS011;6126;57.908;16.490;2022-08-03T04:04:42;1.95;;;1.13;;
12124;SDS011;6126;57.908;16.490;2022-08-03T04:07:27;1.27;;;1.17;;
12124;SDS011;6126;57.908;16.490;2022-08-03T04:10:53;1.60;;;1.27;;
12124;SDS011;6126;57.908;16.490;2022-08-03T04:16:35;1.30;;;1.20;;
12124;SDS011;6126;57.908;16.490;2022-08-03T04:19:09;1.73;;;1.30;;
12124;SDS011;6126;57.908;16.490;2022-08-03T04:21:42;1.77;;;1.00;;
12124;SDS011;6126;57.908;16.490;2022-08-03T04:24:14;1.90;;;1.38;;
12124;SDS011;6126;57.908;16.490;2022-08-03T04:26:43;2.67;;;1.35;;
12124;SDS011;6126;57.908;16.490;2022-08-03T04:29:13;3.78;;;1.30;;
12124;SDS011;6126;57.908;16.490;2022-08-03T04:31:42;1.60;;;1.48;;
12124;SDS011;6126;57.908;16.490;2022-08-03T04:34:10;2.88;;;1.25;;
12124;SDS011;6126;57.908;16.490;2022-08-03T04:36:39;1.48;;;1.20;;
12124;SDS011;6126;57.908;16.490;2022-08-03T04:39:18;2.50;;;1.33;;
12124;SDS011;6126;57.908;16.490;2022-08-03T04:41:55;4.95;;;1.95;;
12124;SDS011;6126;57.908;16.490;2022-08-03T04:44:26;2.42;;;1.40;;
12124;SDS011;6126;57.908;16.490;2022-08-03T04:46:55;3.45;;;1.50;;
12124;SDS011;6126;57.908;16.490;2022-08-03T04:49:22;1.98;;;1.20;;
12124;SDS011;6126;57.908;16.490;2022-08-03T04:51:49;2.72;;;1.67;;
12124;SDS011;6126;57.908;16.490;2022-08-03T04:54:16;3.90;;;1.52;;
12124;SDS011;6126;57.908;16.490;2022-08-03T04:56:42;2.50;;;1.35;;
12124;SDS011;6126;57.908;16.490;2022-08-03T04:59:09;1.58;;;1.33;;
12124;SDS011;6126;57.908;16.490;2022-08-03T05:01:35;4.15;;;1.23;;
12124;SDS011;6126;57.908;16.490;2022-08-03T05:04:03;2.97;;;1.33;;
12124;SDS011;6126;57.908;16.490;2022-08-03T05:06:29;2.40;;;1.67;;
12124;SDS011;6126;57.908;16.490;2022-08-03T05:08:55;3.35;;;1.00;;
12124;SDS011;6126;57.908;16.490;2022-08-03T05:11:21;3.60;;;1.23;;
12124;SDS011;6126;57.908;16.490;2022-08-03T05:13:47;1.48;;;1.38;;
12124;SDS011;6126;57.908;16.490;2022-08-03T05:16:13;1.98;;;1.08;;
12124;SDS011;6126;57.908;16.490;2022-08-03T05:18:40;1.95;;;1.45;;
12124;SDS011;6126;57.908;16.490;2022-08-03T05:21:07;2.67;;;1.17;;
12124;SDS011;6126;57.908;16.490;2022-08-03T05:23:34;2.35;;;1.20;;
12124;SDS011;6126;57.908;16.490;2022-08-03T05:26:01;1.58;;;1.23;;
12124;SDS011;6126;57.908;16.490;2022-08-03T05:28:28;1.92;;;1.30;;
12124;SDS011;6126;57.908;16.490;2022-08-03T05:30:53;1.20;;;1.08;;
12124;SDS011;6126;57.908;16.490;2022-08-03T05:33:19;3.92;;;1.40;;
12124;SDS011;6126;57.908;16.490;2022-08-03T05:35:45;2.40;;;1.15;;
12124;SDS011;6126;57.908;16.490;2022-08-03T05:38:11;2.10;;;1.23;;
12124;SDS011;6126;57.908;16.490;2022-08-03T05:40:37;1.88;;;1.20;;
12124;SDS011;6126;57.908;16.490;2022-08-03T05:43:03;2.47;;;1.10;;
12124;SDS011;6126;57.908;16.490;2022-08-03T05:45:29;2.00;;;1.10;;
12124;SDS011;6126;57.908;16.490;2022-08-03T05:47:54;1.33;;;1.05;;
12124;SDS011;6126;57.908;16.490;2022-08-03T05:50:20;1.92;;;1.20;;
12124;SDS011;6126;57.908;16.490;2022-08-03T05:52:46;1.55;;;1.40;;
12124;SDS011;6126;57.908;16.490;2022-08-03T05:55:12;2.80;;;1.40;;
12124;SDS011;6126;57.908;16.490;2022-08-03T05:57:40;1.35;;;1.10;;
12124;SDS011;6126;57.908;16.490;2022-08-03T06:00:07;1.10;;;1.00;;
12124;SDS011;6126;57.908;16.490;2022-08-03T06:02:35;2.55;;;1.30;;
12124;SDS011;6126;57.908;16.490;2022-08-03T06:05:02;4.35;;;1.50;;
12124;SDS011;6126;57.908;16.490;2022-08-03T06:07:28;1.15;;;1.02;;
12124;SDS011;6126;57.908;16.490;2022-08-03T06:09:54;2.10;;;1.20;;
12124;SDS011;6126;57.908;16.490;2022-08-03T06:12:20;2.88;;;1.33;;
12124;SDS011;6126;57.908;16.490;2022-08-03T06:14:46;1.30;;;1.10;;
12124;SDS011;6126;57.908;16.490;2022-08-03T06:17:12;2.08;;;1.35;;
12124;SDS011;6126;57.908;16.490;2022-08-03T06:19:37;1.90;;;1.40;;
12124;SDS011;6126;57.908;16.490;2022-08-03T06:22:03;2.50;;;1.30;;
12124;SDS011;6126;57.908;16.490;2022-08-03T06:24:29;1.35;;;1.25;;
12124;SDS011;6126;57.908;16.490;2022-08-03T06:26:57;2.33;;;1.55;;
12124;SDS011;6126;57.908;16.490;2022-08-03T06:29:22;3.22;;;1.45;;
12124;SDS011;6126;57.908;16.490;2022-08-03T06:31:48;1.98;;;1.30;;
12124;SDS011;6126;57.908;16.490;2022-08-03T06:34:14;5.45;;;1.13;;
12124;SDS011;6126;57.908;16.490;2022-08-03T06:36:40;2.28;;;1.40;;
12124;SDS011;6126;57.908;16.490;2022-08-03T06:39:06;1.38;;;1.20;;
12124;SDS011;6126;57.908;16.490;2022-08-03T06:41:32;1.50;;;1.40;;
12124;SDS011;6126;57.908;16.490;2022-08-03T06:43:58;4.05;;;1.60;;
12124;SDS011;6126;57.908;16.490;2022-08-03T06:46:24;1.67;;;0.98;;
12124;SDS011;6126;57.908;16.490;2022-08-03T06:48:50;3.53;;;1.20;;
12124;SDS011;6126;57.908;16.490;2022-08-03T06:51:16;1.77;;;1.13;;
12124;SDS011;6126;57.908;16.490;2022-08-03T06:53:42;1.30;;;1.20;;
12124;SDS011;6126;57.908;16.490;2022-08-03T06:56:08;2.55;;;1.60;;
12124;SDS011;6126;57.908;16.490;2022-08-03T06:58:34;3.70;;;1.42;;
12124;SDS011;6126;57.908;16.490;2022-08-03T07:01:00;1.33;;;1.23;;
12124;SDS011;6126;57.908;16.490;2022-08-03T07:03:26;1.77;;;1.30;;
12124;SDS011;6126;57.908;16.490;2022-08-03T07:05:51;1.45;;;1.35;;
12124;SDS011;6126;57.908;16.490;2022-08-03T07:08:17;2.85;;;1.67;;
12124;SDS011;6126;57.908;16.490;2022-08-03T07:10:44;2.85;;;1.30;;
12124;SDS011;6126;57.908;16.490;2022-08-03T07:13:10;1.38;;;1.15;;
12124;SDS011;6126;57.908;16.490;2022-08-03T07:15:36;2.45;;;1.50;;
12124;SDS011;6126;57.908;16.490;2022-08-03T07:18:02;1.80;;;1.17;;
12124;SDS011;6126;57.908;16.490;2022-08-03T07:20:28;3.88;;;1.40;;
12124;SDS011;6126;57.908;16.490;2022-08-03T07:22:54;2.00;;;1.30;;
12124;SDS011;6126;57.908;16.490;2022-08-03T07:25:20;3.95;;;1.50;;
12124;SDS011;6126;57.908;16.490;2022-08-03T07:27:47;1.30;;;1.20;;
12124;SDS011;6126;57.908;16.490;2022-08-03T07:30:13;1.27;;;1.17;;
12124;SDS011;6126;57.908;16.490;2022-08-03T07:32:40;2.55;;;1.45;;
12124;SDS011;6126;57.908;16.490;2022-08-03T07:35:06;1.73;;;1.27;;
12124;SDS011;6126;57.908;16.490;2022-08-03T07:37:35;2.97;;;1.38;;
12124;SDS011;6126;57.908;16.490;2022-08-03T07:40:02;1.20;;;1.10;;
12124;SDS011;6126;57.908;16.490;2022-08-03T07:42:30;1.77;;;1.20;;
12124;SDS011;6126;57.908;16.490;2022-08-03T07:44:57;2.97;;;1.30;;
12124;SDS011;6126;57.908;16.490;2022-08-03T07:47:25;2.60;;;1.33;;
12124;SDS011;6126;57.908;16.490;2022-08-03T07:49:54;2.05;;;1.17;;
12124;SDS011;6126;57.908;16.490;2022-08-03T07:52:21;2.15;;;1.10;;
12124;SDS011;6126;57.908;16.490;2022-08-03T07:55:06;1.88;;;1.10;;
12124;SDS011;6126;57.908;16.490;2022-08-03T07:57:33;1.23;;;1.10;;
12124;SDS011;6126;57.908;16.490;2022-08-03T08:00:00;1.13;;;1.02;;
12124;SDS011;6126;57.908;16.490;2022-08-03T08:02:28;2.17;;;1.33;;
12124;SDS011;6126;57.908;16.490;2022-08-03T08:04:54;2.03;;;1.17;;
12124;SDS011;6126;57.908;16.490;2022-08-03T08:07:19;3.15;;;1.02;;
12124;SDS011;6126;57.908;16.490;2022-08-03T08:09:45;1.67;;;1.10;;
12124;SDS011;6126;57.908;16.490;2022-08-03T08:12:11;2.03;;;1.25;;
12124;SDS011;6126;57.908;16.490;2022-08-03T08:14:37;1.05;;;0.90;;
12124;SDS011;6126;57.908;16.490;2022-08-03T08:17:03;1.33;;;1.23;;
12124;SDS011;6126;57.908;16.490;2022-08-03T08:19:29;1.35;;;1.25;;
12124;SDS011;6126;57.908;16.490;2022-08-03T08:21:55;0.82;;;0.82;;
12124;SDS011;6126;57.908;16.490;2022-08-03T08:24:21;2.20;;;1.10;;
12124;SDS011;6126;57.908;16.490;2022-08-03T08:26:47;1.50;;;1.17;;
12124;SDS011;6126;57.908;16.490;2022-08-03T08:29:13;3.45;;;1.25;;
12124;SDS011;6126;57.908;16.490;2022-08-03T08:31:39;2.75;;;1.08;;
12124;SDS011;6126;57.908;16.490;2022-08-03T08:34:04;1.55;;;0.93;;
12124;SDS011;6126;57.908;16.490;2022-08-03T08:36:34;2.10;;;1.10;;
12124;SDS011;6126;57.908;16.490;2022-08-03T08:39:00;1.30;;;1.10;;
12124;SDS011;6126;57.908;16.490;2022-08-03T08:41:26;1.27;;;1.10;;
12124;SDS011;6126;57.908;16.490;2022-08-03T08:43:53;1.25;;;1.15;;
12124;SDS011;6126;57.908;16.490;2022-08-03T08:46:19;0.82;;;0.80;;
12124;SDS011;6126;57.908;16.490;2022-08-03T08:48:46;1.30;;;1.17;;
12124;SDS011;6126;57.908;16.490;2022-08-03T08:51:14;0.95;;;0.80;;
12124;SDS011;6126;57.908;16.490;2022-08-03T08:53:44;0.85;;;0.85;;
12124;SDS011;6126;57.908;16.490;2022-08-03T08:56:16;1.10;;;0.82;;
12124;SDS011;6126;57.908;16.490;2022-08-03T08:58:48;1.25;;;0.77;;
12124;SDS011;6126;57.908;16.490;2022-08-03T09:01:23;0.95;;;0.80;;
12124;SDS011;6126;57.908;16.490;2022-08-03T09:03:49;0.80;;;0.77;;
12124;SDS011;6126;57.908;16.490;2022-08-03T09:06:18;1.85;;;0.90;;
12124;SDS011;6126;57.908;16.490;2022-08-03T09:08:45;1.70;;;0.70;;
12124;SDS011;6126;57.908;16.490;2022-08-03T09:11:11;0.77;;;0.70;;
12124;SDS011;6126;57.908;16.490;2022-08-03T09:13:37;1.10;;;1.00;;
12124;SDS011;6126;57.908;16.490;2022-08-03T09:18:43;2.08;;;0.90;;
12124;SDS011;6126;57.908;16.490;2022-08-03T09:23:54;1.13;;;0.70;;
12124;SDS011;6126;57.908;16.490;2022-08-03T09:26:23;1.33;;;0.98;;
12124;SDS011;6126;57.908;16.490;2022-08-03T09:28:54;2.13;;;0.90;;
12124;SDS011;6126;57.908;16.490;2022-08-03T09:34:07;1.05;;;0.80;;
12124;SDS011;6126;57.908;16.490;2022-08-03T09:39:16;0.90;;;0.90;;
12124;SDS011;6126;57.908;16.490;2022-08-03T09:42:09;1.42;;;1.13;;
12124;SDS011;6126;57.908;16.490;2022-08-03T09:44:44;2.53;;;0.85;;
12124;SDS011;6126;57.908;16.490;2022-08-03T09:47:13;1.00;;;1.00;;
12124;SDS011;6126;57.908;16.490;2022-08-03T09:49:58;0.68;;;0.68;;
12124;SDS011;6126;57.908;16.490;2022-08-03T09:52:33;1.42;;;1.00;;
12124;SDS011;6126;57.908;16.490;2022-08-03T09:55:12;1.52;;;1.10;;
12124;SDS011;6126;57.908;16.490;2022-08-03T09:57:39;2.40;;;1.20;;
12124;SDS011;6126;57.908;16.490;2022-08-03T10:00:10;1.38;;;1.27;;
12124;SDS011;6126;57.908;16.490;2022-08-03T10:02:40;1.85;;;1.27;;
12124;SDS011;6126;57.908;16.490;2022-08-03T10:05:09;1.20;;;1.02;;
12124;SDS011;6126;57.908;16.490;2022-08-03T10:07:55;1.30;;;1.20;;
12124;SDS011;6126;57.908;16.490;2022-08-03T10:10:21;1.25;;;1.15;;
12124;SDS011;6126;57.908;16.490;2022-08-03T10:12:46;3.00;;;1.40;;
12124;SDS011;6126;57.908;16.490;2022-08-03T10:15:13;2.13;;;1.20;;
12124;SDS011;6126;57.908;16.490;2022-08-03T10:17:39;1.80;;;1.50;;
12124;SDS011;6126;57.908;16.490;2022-08-03T10:20:06;2.22;;;1.50;;
12124;SDS011;6126;57.908;16.490;2022-08-03T10:22:35;2.70;;;1.40;;
12124;SDS011;6126;57.908;16.490;2022-08-03T10:25:07;3.40;;;1.60;;
12124;SDS011;6126;57.908;16.490;2022-08-03T10:27:37;1.63;;;1.52;;
12124;SDS011;6126;57.908;16.490;2022-08-03T10:30:10;2.10;;;1.90;;
12124;SDS011;6126;57.908;16.490;2022-08-03T10:35:12;2.47;;;1.40;;
12124;SDS011;6126;57.908;16.490;2022-08-03T10:37:44;2.45;;;1.80;;
12124;SDS011;6126;57.908;16.490;2022-08-03T10:40:26;3.03;;;1.50;;
12124;SDS011;6126;57.908;16.490;2022-08-03T10:42:56;2.35;;;1.70;;
12124;SDS011;6126;57.908;16.490;2022-08-03T10:45:37;5.32;;;1.63;;
12124;SDS011;6126;57.908;16.490;2022-08-03T10:48:06;4.43;;;1.90;;
12124;SDS011;6126;57.908;16.490;2022-08-03T10:50:33;2.50;;;1.50;;
12124;SDS011;6126;57.908;16.490;2022-08-03T11:01:13;3.30;;;1.55;;
12124;SDS011;6126;57.908;16.490;2022-08-03T11:06:17;2.47;;;1.60;;
12124;SDS011;6126;57.908;16.490;2022-08-03T11:11:37;1.40;;;1.30;;
12124;SDS011;6126;57.908;16.490;2022-08-03T11:16:40;2.20;;;1.52;;
12124;SDS011;6126;57.908;16.490;2022-08-03T11:19:14;3.75;;;1.25;;
12124;SDS011;6126;57.908;16.490;2022-08-03T11:21:52;1.85;;;1.50;;
12124;SDS011;6126;57.908;16.490;2022-08-03T11:46:13;1.88;;;1.33;;
12124;SDS011;6126;57.908;16.490;2022-08-03T11:48:43;1.30;;;1.20;;
12124;SDS011;6126;57.908;16.490;2022-08-03T11:53:45;1.58;;;1.40;;
12124;SDS011;6126;57.908;16.490;2022-08-03T11:56:15;2.38;;;1.52;;
12124;SDS011;6126;57.908;16.490;2022-08-03T11:58:47;2.60;;;1.70;;
12124;SDS011;6126;57.908;16.490;2022-08-03T12:01:19;4.40;;;1.90;;
12124;SDS011;6126;57.908;16.490;2022-08-03T12:03:47;2.80;;;1.63;;
12124;SDS011;6126;57.908;16.490;2022-08-03T12:06:14;6.20;;;1.67;;
12124;SDS011;6126;57.908;16.490;2022-08-03T12:08:42;3.28;;;1.85;;
12124;SDS011;6126;57.908;16.490;2022-08-03T12:11:10;5.07;;;1.67;;
12124;SDS011;6126;57.908;16.490;2022-08-03T12:13:40;3.95;;;1.60;;
12124;SDS011;6126;57.908;16.490;2022-08-03T12:16:21;1.77;;;1.48;;
12124;SDS011;6126;57.908;16.490;2022-08-03T12:18:59;1.75;;;1.58;;
12124;SDS011;6126;57.908;16.490;2022-08-03T12:21:28;2.40;;;1.88;;
12124;SDS011;6126;57.908;16.490;2022-08-03T12:24:00;2.10;;;1.40;;
12124;SDS011;6126;57.908;16.490;2022-08-03T12:26:29;1.45;;;1.35;;
12124;SDS011;6126;57.908;16.490;2022-08-03T12:29:15;1.98;;;1.88;;
12124;SDS011;6126;57.908;16.490;2022-08-03T12:31:45;3.30;;;1.73;;
12124;SDS011;6126;57.908;16.490;2022-08-03T12:34:11;1.80;;;1.50;;
12124;SDS011;6126;57.908;16.490;2022-08-03T12:36:37;3.35;;;1.55;;
12124;SDS011;6126;57.908;16.490;2022-08-03T12:39:16;3.65;;;1.52;;
12124;SDS011;6126;57.908;16.490;2022-08-03T12:41:51;3.38;;;1.20;;
12124;SDS011;6126;57.908;16.490;2022-08-03T12:44:27;2.33;;;1.40;;
12124;SDS011;6126;57.908;16.490;2022-08-03T12:46:59;4.75;;;1.98;;
12124;SDS011;6126;57.908;16.490;2022-08-03T12:49:27;4.00;;;1.88;;
12124;SDS011;6126;57.908;16.490;2022-08-03T12:54:26;2.10;;;1.70;;
12124;SDS011;6126;57.908;16.490;2022-08-03T12:57:06;2.28;;;1.52;;
12124;SDS011;6126;57.908;16.490;2022-08-03T12:59:36;1.58;;;1.45;;
12124;SDS011;6126;57.908;16.490;2022-08-03T13:04:48;6.72;;;1.55;;
12124;SDS011;6126;57.908;16.490;2022-08-03T13:07:16;1.65;;;1.52;;
12124;SDS011;6126;57.908;16.490;2022-08-03T13:09:44;4.03;;;1.90;;
12124;SDS011;6126;57.908;16.490;2022-08-03T13:14:43;3.80;;;1.70;;
12124;SDS011;6126;57.908;16.490;2022-08-03T13:17:16;3.55;;;1.38;;
12124;SDS011;6126;57.908;16.490;2022-08-03T13:19:43;3.22;;;1.60;;
12124;SDS011;6126;57.908;16.490;2022-08-03T13:24:42;3.05;;;1.55;;
12124;SDS011;6126;57.908;16.490;2022-08-03T13:27:10;3.33;;;1.80;;
12124;SDS011;6126;57.908;16.490;2022-08-03T13:29:38;1.63;;;1.42;;
12124;SDS011;6126;57.908;16.490;2022-08-03T13:32:05;2.47;;;1.50;;
12124;SDS011;6126;57.908;16.490;2022-08-03T13:34:31;2.60;;;1.23;;
12124;SDS011;6126;57.908;16.490;2022-08-03T13:36:57;4.03;;;1.98;;
12124;SDS011;6126;57.908;16.490;2022-08-03T13:39:23;2.65;;;1.60;;
12124;SDS011;6126;57.908;16.490;2022-08-03T13:41:49;3.75;;;1.50;;
12124;SDS011;6126;57.908;16.490;2022-08-03T13:44:16;2.03;;;1.50;;
12124;SDS011;6126;57.908;16.490;2022-08-03T13:46:43;2.50;;;1.52;;
12124;SDS011;6126;57.908;16.490;2022-08-03T13:49:10;1.90;;;1.58;;
12124;SDS011;6126;57.908;16.490;2022-08-03T13:51:36;3.17;;;1.40;;
12124;SDS011;6126;57.908;16.490;2022-08-03T13:54:02;7.22;;;1.85;;
12124;SDS011;6126;57.908;16.490;2022-08-03T13:56:28;1.98;;;1.55;;
12124;SDS011;6126;57.908;16.490;2022-08-03T13:58:55;3.72;;;2.03;;
12124;SDS011;6126;57.908;16.490;2022-08-03T14:01:22;1.75;;;1.60;;
12124;SDS011;6126;57.908;16.490;2022-08-03T14:03:49;4.05;;;1.48;;
12124;SDS011;6126;57.908;16.490;2022-08-03T14:06:20;1.92;;;1.67;;
12124;SDS011;6126;57.908;16.490;2022-08-03T14:08:48;2.92;;;1.50;;
12124;SDS011;6126;57.908;16.490;2022-08-03T14:11:15;3.15;;;1.70;;
12124;SDS011;6126;57.908;16.490;2022-08-03T14:13:42;3.38;;;1.80;;
12124;SDS011;6126;57.908;16.490;2022-08-03T14:16:08;1.90;;;1.63;;
12124;SDS011;6126;57.908;16.490;2022-08-03T14:18:35;2.75;;;1.63;;
12124;SDS011;6126;57.908;16.490;2022-08-03T14:21:01;1.65;;;1.55;;
12124;SDS011;6126;57.908;16.490;2022-08-03T14:23:29;3.65;;;1.83;;
12124;SDS011;6126;57.908;16.490;2022-08-03T14:25:55;2.55;;;1.63;;
12124;SDS011;6126;57.908;16.490;2022-08-03T14:28:22;2.72;;;1.58;;
12124;SDS011;6126;57.908;16.490;2022-08-03T14:30:49;3.50;;;1.90;;
12124;SDS011;6126;57.908;16.490;2022-08-03T14:33:17;2.83;;;1.70;;
12124;SDS011;6126;57.908;16.490;2022-08-03T14:35:44;1.70;;;1.60;;
12124;SDS011;6126;57.908;16.490;2022-08-03T14:38:11;3.03;;;1.70;;
12124;SDS011;6126;57.908;16.490;2022-08-03T14:40:37;1.88;;;1.60;;
12124;SDS011;6126;57.908;16.490;2022-08-03T14:43:03;2.22;;;1.75;;
12124;SDS011;6126;57.908;16.490;2022-08-03T14:45:29;3.05;;;2.00;;
12124;SDS011;6126;57.908;16.490;2022-08-03T14:47:55;3.35;;;1.55;;
12124;SDS011;6126;57.908;16.490;2022-08-03T14:50:23;2.97;;;1.55;;
12124;SDS011;6126;57.908;16.490;2022-08-03T14:52:52;1.88;;;1.50;;
12124;SDS011;6126;57.908;16.490;2022-08-03T14:55:18;5.05;;;2.15;;
12124;SDS011;6126;57.908;16.490;2022-08-03T14:57:44;3.70;;;1.92;;
12124;SDS011;6126;57.908;16.490;2022-08-03T15:00:10;3.13;;;1.73;;
12124;SDS011;6126;57.908;16.490;2022-08-03T15:02:37;1.98;;;1.80;;
12124;SDS011;6126;57.908;16.490;2022-08-03T15:05:03;3.40;;;1.73;;
12124;SDS011;6126;57.908;16.490;2022-08-03T15:07:29;1.70;;;1.60;;
12124;SDS011;6126;57.908;16.490;2022-08-03T15:09:55;2.47;;;1.85;;
12124;SDS011;6126;57.908;16.490;2022-08-03T15:12:22;2.67;;;1.92;;
12124;SDS011;6126;57.908;16.490;2022-08-03T15:14:47;1.92;;;1.55;;
12124;SDS011;6126;57.908;16.490;2022-08-03T15:17:13;5.20;;;1.77;;
12124;SDS011;6126;57.908;16.490;2022-08-03T15:19:39;1.65;;;1.45;;
12124;SDS011;6126;57.908;16.490;2022-08-03T15:22:05;1.90;;;1.80;;
12124;SDS011;6126;57.908;16.490;2022-08-03T15:24:31;2.08;;;1.80;;
12124;SDS011;6126;57.908;16.490;2022-08-03T15:26:57;1.85;;;1.67;;
12124;SDS011;6126;57.908;16.490;2022-08-03T15:29:23;1.60;;;1.50;;
12124;SDS011;6126;57.908;16.490;2022-08-03T15:31:49;2.00;;;1.50;;
12124;SDS011;6126;57.908;16.490;2022-08-03T15:34:15;3.17;;;1.73;;
12124;SDS011;6126;57.908;16.490;2022-08-03T15:36:42;2.15;;;1.95;;
12124;SDS011;6126;57.908;16.490;2022-08-03T15:39:08;2.03;;;1.80;;
12124;SDS011;6126;57.908;16.490;2022-08-03T15:41:34;4.18;;;2.22;;
12124;SDS011;6126;57.908;16.490;2022-08-03T15:44:00;2.83;;;1.88;;
12124;SDS011;6126;57.908;16.490;2022-08-03T15:46:26;6.07;;;1.90;;
12124;SDS011;6126;57.908;16.490;2022-08-03T15:48:52;5.35;;;2.15;;
12124;SDS011;6126;57.908;16.490;2022-08-03T15:51:18;2.47;;;1.75;;
12124;SDS011;6126;57.908;16.490;2022-08-03T15:53:44;3.63;;;2.10;;
12124;SDS011;6126;57.908;16.490;2022-08-03T15:56:10;6.55;;;2.00;;
12124;SDS011;6126;57.908;16.490;2022-08-03T15:58:36;3.50;;;2.08;;
12124;SDS011;6126;57.908;16.490;2022-08-03T16:01:03;3.13;;;2.00;;
12124;SDS011;6126;57.908;16.490;2022-08-03T16:03:31;2.53;;;1.80;;
12124;SDS011;6126;57.908;16.490;2022-08-03T16:06:02;3.00;;;1.60;;
12124;SDS011;6126;57.908;16.490;2022-08-03T16:08:31;6.20;;;1.73;;
12124;SDS011;6126;57.908;16.490;2022-08-03T16:10:58;3.13;;;1.75;;
12124;SDS011;6126;57.908;16.490;2022-08-03T16:13:25;2.08;;;1.83;;
12124;SDS011;6126;57.908;16.490;2022-08-03T16:15:52;4.30;;;1.88;;
12124;SDS011;6126;57.908;16.490;2022-08-03T16:18:18;2.33;;;1.63;;
12124;SDS011;6126;57.908;16.490;2022-08-03T16:20:44;3.50;;;1.92;;